sensor_id;sensor_type;location;lat;lon;timestamp;P1;durP1;ratioP1;P2;durP2;ratioP2
51764;SDS011;37835;53.256;6.456;2023-11-21T00:00:18;25.65;;;6.65;;
51764;SDS011;37835;53.256;6.456;2023-11-21T00:02:44;33.53;;;6.55;;
51764;SDS011;37835;53.256;6.456;2023-11-21T00:05:11;28.52;;;6.18;;
51764;SDS011;37835;53.256;6.456;2023-11-21T00:07:39;33.90;;;7.70;;
51764;SDS011;37835;53.256;6.456;2023-11-21T00:10:05;28.27;;;6.57;;
51764;SDS011;37835;53.256;6.456;2023-11-21T00:12:33;40.20;;;7.18;;
51764;SDS011;37835;53.256;6.456;2023-11-21T00:14:59;25.20;;;6.15;;
51764;SDS011;37835;53.256;6.456;2023-11-21T00:17:24;30.58;;;7.30;;
51764;SDS011;37835;53.256;6.456;2023-11-21T00:19:50;32.75;;;6.53;;
51764;SDS011;37835;53.256;6.456;2023-11-21T00:22:18;27.83;;;6.72;;
51764;SDS011;37835;53.256;6.456;2023-11-21T00:24:44;29.98;;;7.18;;
51764;SDS011;37835;53.256;6.456;2023-11-21T00:27:10;33.88;;;7.57;;
51764;SDS011;37835;53.256;6.456;2023-11-21T00:29:36;32.90;;;7.03;;
51764;SDS011;37835;53.256;6.456;2023-11-21T00:32:03;39.72;;;7.82;;
51764;SDS011;37835;53.256;6.456;2023-11-21T00:34:30;30.70;;;7.22;;
51764;SDS011;37835;53.256;6.456;2023-11-21T00:36:56;38.63;;;7.65;;
51764;SDS011;37835;53.256;6.456;2023-11-21T00:39:22;35.80;;;7.20;;
51764;SDS011;37835;53.256;6.456;2023-11-21T00:41:47;30.90;;;7.57;;
51764;SDS011;37835;53.256;6.456;2023-11-21T00:44:13;33.17;;;7.78;;
51764;SDS011;37835;53.256;6.456;2023-11-21T00:46:39;30.23;;;7.35;;
51764;SDS011;37835;53.256;6.456;2023-11-21T00:49:04;30.27;;;7.47;;
51764;SDS011;37835;53.256;6.456;2023-11-21T00:51:30;30.90;;;7.70;;
51764;SDS011;37835;53.256;6.456;2023-11-21T00:53:56;22.00;;;7.43;;
51764;SDS011;37835;53.256;6.456;2023-11-21T00:56:24;32.75;;;7.53;;
51764;SDS011;37835;53.256;6.456;2023-11-21T00:58:49;31.83;;;7.57;;
51764;SDS011;37835;53.256;6.456;2023-11-21T01:01:17;27.20;;;7.53;;
51764;SDS011;37835;53.256;6.456;2023-11-21T01:03:44;24.55;;;7.53;;
51764;SDS011;37835;53.256;6.456;2023-11-21T01:06:11;35.20;;;8.00;;
51764;SDS011;37835;53.256;6.456;2023-11-21T01:08:37;21.95;;;7.70;;
51764;SDS011;37835;53.256;6.456;2023-11-21T01:11:02;30.30;;;8.07;;
51764;SDS011;37835;53.256;6.456;2023-11-21T01:13:28;25.92;;;7.80;;
51764;SDS011;37835;53.256;6.456;2023-11-21T01:15:54;26.85;;;7.53;;
51764;SDS011;37835;53.256;6.456;2023-11-21T01:18:20;25.23;;;7.90;;
51764;SDS011;37835;53.256;6.456;2023-11-21T01:20:46;23.92;;;7.05;;
51764;SDS011;37835;53.256;6.456;2023-11-21T01:23:12;25.08;;;7.72;;
51764;SDS011;37835;53.256;6.456;2023-11-21T01:25:38;24.48;;;7.63;;
51764;SDS011;37835;53.256;6.456;2023-11-21T01:28:04;34.03;;;7.68;;
51764;SDS011;37835;53.256;6.456;2023-11-21T01:30:30;32.30;;;8.57;;
51764;SDS011;37835;53.256;6.456;2023-11-21T01:32:57;30.40;;;8.30;;
51764;SDS011;37835;53.256;6.456;2023-11-21T01:35:23;29.65;;;7.97;;
51764;SDS011;37835;53.256;6.456;2023-11-21T01:37:48;29.10;;;8.25;;
51764;SDS011;37835;53.256;6.456;2023-11-21T01:40:14;29.70;;;8.38;;
51764;SDS011;37835;53.256;6.456;2023-11-21T01:42:40;19.65;;;7.53;;
51764;SDS011;37835;53.256;6.456;2023-11-21T01:45:08;30.50;;;8.73;;
51764;SDS011;37835;53.256;6.456;2023-11-21T01:47:34;29.60;;;9.93;;
51764;SDS011;37835;53.256;6.456;2023-11-21T01:50:01;25.73;;;8.00;;
51764;SDS011;37835;53.256;6.456;2023-11-21T01:52:31;21.58;;;8.15;;
51764;SDS011;37835;53.256;6.456;2023-11-21T01:54:58;32.72;;;8.15;;
51764;SDS011;37835;53.256;6.456;2023-11-21T01:57:25;32.08;;;8.60;;
51764;SDS011;37835;53.256;6.456;2023-11-21T01:59:51;22.13;;;8.82;;
51764;SDS011;37835;53.256;6.456;2023-11-21T02:02:19;30.20;;;9.02;;
51764;SDS011;37835;53.256;6.456;2023-11-21T02:04:44;33.22;;;7.97;;
51764;SDS011;37835;53.256;6.456;2023-11-21T02:07:10;30.08;;;8.70;;
51764;SDS011;37835;53.256;6.456;2023-11-21T02:09:36;27.10;;;8.23;;
51764;SDS011;37835;53.256;6.456;2023-11-21T02:12:03;27.83;;;9.15;;
51764;SDS011;37835;53.256;6.456;2023-11-21T02:14:30;28.27;;;8.68;;
51764;SDS011;37835;53.256;6.456;2023-11-21T02:16:56;23.55;;;8.30;;
51764;SDS011;37835;53.256;6.456;2023-11-21T02:19:22;32.65;;;8.65;;
51764;SDS011;37835;53.256;6.456;2023-11-21T02:21:50;26.55;;;8.60;;
51764;SDS011;37835;53.256;6.456;2023-11-21T02:24:20;31.25;;;9.63;;
51764;SDS011;37835;53.256;6.456;2023-11-21T02:26:47;26.17;;;9.55;;
51764;SDS011;37835;53.256;6.456;2023-11-21T02:29:16;35.63;;;9.63;;
51764;SDS011;37835;53.256;6.456;2023-11-21T02:31:43;42.60;;;10.38;;
51764;SDS011;37835;53.256;6.456;2023-11-21T02:34:16;30.50;;;9.98;;
51764;SDS011;37835;53.256;6.456;2023-11-21T02:36:43;39.38;;;9.70;;
51764;SDS011;37835;53.256;6.456;2023-11-21T02:39:10;38.97;;;10.75;;
51764;SDS011;37835;53.256;6.456;2023-11-21T02:41:39;41.60;;;11.75;;
51764;SDS011;37835;53.256;6.456;2023-11-21T02:44:05;60.97;;;13.00;;
51764;SDS011;37835;53.256;6.456;2023-11-21T02:46:31;44.90;;;12.57;;
51764;SDS011;37835;53.256;6.456;2023-11-21T02:48:59;37.38;;;11.90;;
51764;SDS011;37835;53.256;6.456;2023-11-21T02:51:25;40.95;;;12.00;;
51764;SDS011;37835;53.256;6.456;2023-11-21T02:53:51;35.40;;;11.50;;
51764;SDS011;37835;53.256;6.456;2023-11-21T02:56:16;47.55;;;12.63;;
51764;SDS011;37835;53.256;6.456;2023-11-21T02:58:42;34.60;;;12.20;;
51764;SDS011;37835;53.256;6.456;2023-11-21T03:01:09;34.83;;;11.68;;
51764;SDS011;37835;53.256;6.456;2023-11-21T03:03:36;39.55;;;13.27;;
51764;SDS011;37835;53.256;6.456;2023-11-21T03:06:08;50.65;;;14.07;;
51764;SDS011;37835;53.256;6.456;2023-11-21T03:08:34;46.00;;;13.80;;
51764;SDS011;37835;53.256;6.456;2023-11-21T03:11:00;46.17;;;14.65;;
51764;SDS011;37835;53.256;6.456;2023-11-21T03:13:28;42.85;;;13.57;;
51764;SDS011;37835;53.256;6.456;2023-11-21T03:15:53;41.65;;;13.45;;
51764;SDS011;37835;53.256;6.456;2023-11-21T03:18:19;49.17;;;14.23;;
51764;SDS011;37835;53.256;6.456;2023-11-21T03:20:47;59.75;;;14.93;;
51764;SDS011;37835;53.256;6.456;2023-11-21T03:23:12;59.67;;;15.82;;
51764;SDS011;37835;53.256;6.456;2023-11-21T03:25:38;41.67;;;14.18;;
51764;SDS011;37835;53.256;6.456;2023-11-21T03:28:04;48.47;;;14.55;;
51764;SDS011;37835;53.256;6.456;2023-11-21T03:30:29;54.03;;;15.90;;
51764;SDS011;37835;53.256;6.456;2023-11-21T03:32:55;43.38;;;14.23;;
51764;SDS011;37835;53.256;6.456;2023-11-21T03:35:21;44.22;;;14.50;;
51764;SDS011;37835;53.256;6.456;2023-11-21T03:37:48;33.38;;;13.00;;
51764;SDS011;37835;53.256;6.456;2023-11-21T03:40:13;44.70;;;14.20;;
51764;SDS011;37835;53.256;6.456;2023-11-21T03:42:39;38.53;;;13.90;;
51764;SDS011;37835;53.256;6.456;2023-11-21T03:45:05;48.58;;;15.80;;
51764;SDS011;37835;53.256;6.456;2023-11-21T03:47:32;35.95;;;13.60;;
51764;SDS011;37835;53.256;6.456;2023-11-21T03:49:57;48.38;;;13.20;;
51764;SDS011;37835;53.256;6.456;2023-11-21T03:52:23;46.78;;;14.30;;
51764;SDS011;37835;53.256;6.456;2023-11-21T03:54:50;40.03;;;13.57;;
51764;SDS011;37835;53.256;6.456;2023-11-21T03:57:15;54.08;;;14.60;;
51764;SDS011;37835;53.256;6.456;2023-11-21T03:59:41;42.30;;;14.02;;
51764;SDS011;37835;53.256;6.456;2023-11-21T04:02:08;47.75;;;14.93;;
51764;SDS011;37835;53.256;6.456;2023-11-21T04:04:34;50.90;;;14.88;;
51764;SDS011;37835;53.256;6.456;2023-11-21T04:07:00;50.38;;;15.23;;
51764;SDS011;37835;53.256;6.456;2023-11-21T04:09:25;59.85;;;16.02;;
51764;SDS011;37835;53.256;6.456;2023-11-21T04:11:51;53.08;;;15.27;;
51764;SDS011;37835;53.256;6.456;2023-11-21T04:14:18;47.80;;;14.43;;
51764;SDS011;37835;53.256;6.456;2023-11-21T04:16:44;56.83;;;15.07;;
51764;SDS011;37835;53.256;6.456;2023-11-21T04:19:10;56.20;;;15.60;;
51764;SDS011;37835;53.256;6.456;2023-11-21T04:21:38;47.08;;;13.68;;
51764;SDS011;37835;53.256;6.456;2023-11-21T04:24:04;43.35;;;13.10;;
51764;SDS011;37835;53.256;6.456;2023-11-21T04:26:31;48.70;;;15.77;;
51764;SDS011;37835;53.256;6.456;2023-11-21T04:28:56;47.42;;;13.93;;
51764;SDS011;37835;53.256;6.456;2023-11-21T04:31:22;45.90;;;13.98;;
51764;SDS011;37835;53.256;6.456;2023-11-21T04:33:48;48.40;;;14.18;;
51764;SDS011;37835;53.256;6.456;2023-11-21T04:36:14;53.95;;;15.25;;
51764;SDS011;37835;53.256;6.456;2023-11-21T04:38:39;49.40;;;14.85;;
51764;SDS011;37835;53.256;6.456;2023-11-21T04:41:05;55.85;;;15.10;;
51764;SDS011;37835;53.256;6.456;2023-11-21T04:43:31;48.08;;;14.35;;
51764;SDS011;37835;53.256;6.456;2023-11-21T04:45:57;47.45;;;14.05;;
51764;SDS011;37835;53.256;6.456;2023-11-21T04:48:22;46.15;;;14.27;;
51764;SDS011;37835;53.256;6.456;2023-11-21T04:50:48;39.83;;;12.43;;
51764;SDS011;37835;53.256;6.456;2023-11-21T04:53:13;37.45;;;12.23;;
51764;SDS011;37835;53.256;6.456;2023-11-21T04:55:40;42.67;;;13.45;;
51764;SDS011;37835;53.256;6.456;2023-11-21T04:58:06;34.15;;;12.25;;
51764;SDS011;37835;53.256;6.456;2023-11-21T05:00:33;34.38;;;13.43;;
51764;SDS011;37835;53.256;6.456;2023-11-21T05:02:58;35.70;;;12.95;;
51764;SDS011;37835;53.256;6.456;2023-11-21T05:05:26;35.53;;;12.40;;
51764;SDS011;37835;53.256;6.456;2023-11-21T05:07:52;39.20;;;14.25;;
51764;SDS011;37835;53.256;6.456;2023-11-21T05:10:18;34.00;;;13.93;;
51764;SDS011;37835;53.256;6.456;2023-11-21T05:12:44;38.53;;;13.80;;
51764;SDS011;37835;53.256;6.456;2023-11-21T05:15:13;28.02;;;11.95;;
51764;SDS011;37835;53.256;6.456;2023-11-21T05:17:40;28.70;;;11.82;;
51764;SDS011;37835;53.256;6.456;2023-11-21T05:20:12;27.85;;;12.30;;
51764;SDS011;37835;53.256;6.456;2023-11-21T05:22:42;32.97;;;13.45;;
51764;SDS011;37835;53.256;6.456;2023-11-21T05:25:08;34.95;;;13.23;;
51764;SDS011;37835;53.256;6.456;2023-11-21T05:27:36;31.13;;;13.55;;
51764;SDS011;37835;53.256;6.456;2023-11-21T05:30:02;36.50;;;14.07;;
51764;SDS011;37835;53.256;6.456;2023-11-21T05:32:34;35.53;;;13.80;;
51764;SDS011;37835;53.256;6.456;2023-11-21T05:35:00;36.95;;;14.75;;
51764;SDS011;37835;53.256;6.456;2023-11-21T05:37:26;43.75;;;15.27;;
51764;SDS011;37835;53.256;6.456;2023-11-21T05:39:55;41.63;;;14.98;;
51764;SDS011;37835;53.256;6.456;2023-11-21T05:42:21;40.90;;;15.20;;
51764;SDS011;37835;53.256;6.456;2023-11-21T05:44:48;46.42;;;16.00;;
51764;SDS011;37835;53.256;6.456;2023-11-21T05:47:14;45.83;;;15.35;;
51764;SDS011;37835;53.256;6.456;2023-11-21T05:49:40;40.17;;;15.43;;
51764;SDS011;37835;53.256;6.456;2023-11-21T05:52:05;41.75;;;16.25;;
51764;SDS011;37835;53.256;6.456;2023-11-21T05:54:31;45.78;;;16.40;;
51764;SDS011;37835;53.256;6.456;2023-11-21T05:56:57;49.92;;;18.20;;
51764;SDS011;37835;53.256;6.456;2023-11-21T05:59:23;53.63;;;19.50;;
51764;SDS011;37835;53.256;6.456;2023-11-21T06:01:49;58.47;;;20.20;;
51764;SDS011;37835;53.256;6.456;2023-11-21T06:04:14;60.05;;;21.13;;
51764;SDS011;37835;53.256;6.456;2023-11-21T06:06:40;54.10;;;20.13;;
51764;SDS011;37835;53.256;6.456;2023-11-21T06:09:05;60.15;;;20.65;;
51764;SDS011;37835;53.256;6.456;2023-11-21T06:11:34;61.67;;;20.70;;
51764;SDS011;37835;53.256;6.456;2023-11-21T06:13:59;66.18;;;22.10;;
51764;SDS011;37835;53.256;6.456;2023-11-21T06:16:25;72.45;;;23.15;;
51764;SDS011;37835;53.256;6.456;2023-11-21T06:18:52;66.95;;;22.38;;
51764;SDS011;37835;53.256;6.456;2023-11-21T06:21:18;69.18;;;22.05;;
51764;SDS011;37835;53.256;6.456;2023-11-21T06:23:44;63.38;;;22.40;;
51764;SDS011;37835;53.256;6.456;2023-11-21T06:26:09;61.40;;;20.98;;
51764;SDS011;37835;53.256;6.456;2023-11-21T06:28:35;56.42;;;21.67;;
51764;SDS011;37835;53.256;6.456;2023-11-21T06:31:03;56.28;;;20.38;;
51764;SDS011;37835;53.256;6.456;2023-11-21T06:33:33;52.53;;;18.92;;
51764;SDS011;37835;53.256;6.456;2023-11-21T06:35:58;55.53;;;19.90;;
51764;SDS011;37835;53.256;6.456;2023-11-21T06:38:27;52.05;;;18.73;;
51764;SDS011;37835;53.256;6.456;2023-11-21T06:40:55;46.35;;;18.48;;
51764;SDS011;37835;53.256;6.456;2023-11-21T06:43:21;48.15;;;18.48;;
51764;SDS011;37835;53.256;6.456;2023-11-21T06:45:47;51.50;;;19.10;;
51764;SDS011;37835;53.256;6.456;2023-11-21T06:48:13;49.67;;;18.52;;
51764;SDS011;37835;53.256;6.456;2023-11-21T06:50:38;51.33;;;20.08;;
51764;SDS011;37835;53.256;6.456;2023-11-21T06:53:04;45.28;;;19.77;;
51764;SDS011;37835;53.256;6.456;2023-11-21T06:55:32;50.28;;;22.02;;
51764;SDS011;37835;53.256;6.456;2023-11-21T06:57:57;54.88;;;23.25;;
51764;SDS011;37835;53.256;6.456;2023-11-21T07:00:25;51.63;;;22.40;;
51764;SDS011;37835;53.256;6.456;2023-11-21T07:02:50;51.85;;;21.80;;
51764;SDS011;37835;53.256;6.456;2023-11-21T07:05:16;50.13;;;21.92;;
51764;SDS011;37835;53.256;6.456;2023-11-21T07:07:45;45.50;;;21.55;;
51764;SDS011;37835;53.256;6.456;2023-11-21T07:10:11;46.22;;;20.27;;
51764;SDS011;37835;53.256;6.456;2023-11-21T07:12:37;45.33;;;21.70;;
51764;SDS011;37835;53.256;6.456;2023-11-21T07:15:03;49.58;;;23.33;;
51764;SDS011;37835;53.256;6.456;2023-11-21T07:17:31;48.97;;;23.30;;
51764;SDS011;37835;53.256;6.456;2023-11-21T07:19:56;49.08;;;23.50;;
51764;SDS011;37835;53.256;6.456;2023-11-21T07:22:22;51.65;;;23.85;;
51764;SDS011;37835;53.256;6.456;2023-11-21T07:24:48;47.30;;;22.73;;
51764;SDS011;37835;53.256;6.456;2023-11-21T07:27:17;48.95;;;23.88;;
51764;SDS011;37835;53.256;6.456;2023-11-21T07:29:42;51.40;;;23.52;;
51764;SDS011;37835;53.256;6.456;2023-11-21T07:32:08;56.17;;;25.23;;
51764;SDS011;37835;53.256;6.456;2023-11-21T07:34:38;45.55;;;23.80;;
51764;SDS011;37835;53.256;6.456;2023-11-21T07:37:03;51.30;;;25.25;;
51764;SDS011;37835;53.256;6.456;2023-11-21T07:39:29;58.05;;;26.25;;
51764;SDS011;37835;53.256;6.456;2023-11-21T07:41:55;56.83;;;26.17;;
51764;SDS011;37835;53.256;6.456;2023-11-21T07:44:21;57.03;;;26.80;;
51764;SDS011;37835;53.256;6.456;2023-11-21T07:46:47;48.35;;;25.80;;
51764;SDS011;37835;53.256;6.456;2023-11-21T07:49:14;51.97;;;25.98;;
51764;SDS011;37835;53.256;6.456;2023-11-21T07:51:42;49.50;;;25.60;;
51764;SDS011;37835;53.256;6.456;2023-11-21T07:54:08;47.00;;;23.10;;
51764;SDS011;37835;53.256;6.456;2023-11-21T07:56:35;45.83;;;23.05;;
51764;SDS011;37835;53.256;6.456;2023-11-21T07:59:00;44.90;;;22.92;;
51764;SDS011;37835;53.256;6.456;2023-11-21T08:01:26;41.50;;;22.23;;
51764;SDS011;37835;53.256;6.456;2023-11-21T08:03:53;42.97;;;22.20;;
51764;SDS011;37835;53.256;6.456;2023-11-21T08:06:22;42.20;;;22.52;;
51764;SDS011;37835;53.256;6.456;2023-11-21T08:08:49;40.50;;;21.75;;
51764;SDS011;37835;53.256;6.456;2023-11-21T08:11:14;40.22;;;21.73;;
51764;SDS011;37835;53.256;6.456;2023-11-21T08:13:40;44.30;;;23.23;;
51764;SDS011;37835;53.256;6.456;2023-11-21T08:16:07;42.60;;;21.95;;
51764;SDS011;37835;53.256;6.456;2023-11-21T08:18:33;47.03;;;23.92;;
51764;SDS011;37835;53.256;6.456;2023-11-21T08:20:59;45.70;;;22.23;;
51764;SDS011;37835;53.256;6.456;2023-11-21T08:23:25;42.10;;;23.40;;
51764;SDS011;37835;53.256;6.456;2023-11-21T08:25:54;42.45;;;22.38;;
51764;SDS011;37835;53.256;6.456;2023-11-21T08:28:20;46.88;;;22.98;;
51764;SDS011;37835;53.256;6.456;2023-11-21T08:30:50;40.25;;;23.27;;
51764;SDS011;37835;53.256;6.456;2023-11-21T08:33:19;37.80;;;22.38;;
51764;SDS011;37835;53.256;6.456;2023-11-21T08:35:45;38.20;;;22.17;;
51764;SDS011;37835;53.256;6.456;2023-11-21T08:38:11;39.28;;;22.08;;
51764;SDS011;37835;53.256;6.456;2023-11-21T08:40:37;35.30;;;20.65;;
51764;SDS011;37835;53.256;6.456;2023-11-21T08:43:03;33.13;;;20.75;;
51764;SDS011;37835;53.256;6.456;2023-11-21T08:45:33;30.50;;;20.75;;
51764;SDS011;37835;53.256;6.456;2023-11-21T08:47:59;33.65;;;20.27;;
51764;SDS011;37835;53.256;6.456;2023-11-21T08:50:25;27.80;;;19.40;;
51764;SDS011;37835;53.256;6.456;2023-11-21T08:52:50;28.02;;;19.10;;
51764;SDS011;37835;53.256;6.456;2023-11-21T08:55:16;26.58;;;19.30;;
51764;SDS011;37835;53.256;6.456;2023-11-21T08:57:43;27.77;;;18.48;;
51764;SDS011;37835;53.256;6.456;2023-11-21T09:00:10;24.13;;;16.92;;
51764;SDS011;37835;53.256;6.456;2023-11-21T09:02:37;27.85;;;16.83;;
51764;SDS011;37835;53.256;6.456;2023-11-21T09:05:04;25.15;;;18.60;;
51764;SDS011;37835;53.256;6.456;2023-11-21T09:07:30;24.48;;;17.75;;
51764;SDS011;37835;53.256;6.456;2023-11-21T09:09:56;23.83;;;17.58;;
51764;SDS011;37835;53.256;6.456;2023-11-21T09:12:22;23.77;;;17.52;;
51764;SDS011;37835;53.256;6.456;2023-11-21T09:14:50;26.35;;;18.38;;
51764;SDS011;37835;53.256;6.456;2023-11-21T09:17:15;21.65;;;16.63;;
51764;SDS011;37835;53.256;6.456;2023-11-21T09:19:41;25.77;;;17.02;;
51764;SDS011;37835;53.256;6.456;2023-11-21T09:22:10;23.05;;;16.77;;
51764;SDS011;37835;53.256;6.456;2023-11-21T09:24:36;23.27;;;16.88;;
51764;SDS011;37835;53.256;6.456;2023-11-21T09:27:02;29.27;;;16.98;;
51764;SDS011;37835;53.256;6.456;2023-11-21T09:29:30;22.20;;;16.17;;
51764;SDS011;37835;53.256;6.456;2023-11-21T09:31:56;25.10;;;15.88;;
51764;SDS011;37835;53.256;6.456;2023-11-21T09:34:24;17.55;;;15.30;;
51764;SDS011;37835;53.256;6.456;2023-11-21T09:36:50;19.45;;;13.65;;
51764;SDS011;37835;53.256;6.456;2023-11-21T09:39:16;18.85;;;14.75;;
51764;SDS011;37835;53.256;6.456;2023-11-21T09:44:09;16.50;;;12.70;;
51764;SDS011;37835;53.256;6.456;2023-11-21T09:46:40;15.70;;;12.65;;
51764;SDS011;37835;53.256;6.456;2023-11-21T09:49:08;15.82;;;11.73;;
51764;SDS011;37835;53.256;6.456;2023-11-21T09:51:38;15.35;;;11.57;;
51764;SDS011;37835;53.256;6.456;2023-11-21T09:54:06;13.88;;;11.40;;
51764;SDS011;37835;53.256;6.456;2023-11-21T09:56:34;14.68;;;11.48;;
51764;SDS011;37835;53.256;6.456;2023-11-21T09:59:00;13.35;;;10.80;;
51764;SDS011;37835;53.256;6.456;2023-11-21T10:01:31;17.60;;;11.27;;
51764;SDS011;37835;53.256;6.456;2023-11-21T10:03:58;16.95;;;11.20;;
51764;SDS011;37835;53.256;6.456;2023-11-21T10:06:24;14.43;;;10.95;;
51764;SDS011;37835;53.256;6.456;2023-11-21T10:08:52;14.32;;;11.57;;
51764;SDS011;37835;53.256;6.456;2023-11-21T10:11:24;14.13;;;11.13;;
51764;SDS011;37835;53.256;6.456;2023-11-21T10:13:55;16.35;;;11.60;;
51764;SDS011;37835;53.256;6.456;2023-11-21T10:16:25;17.42;;;12.27;;
51764;SDS011;37835;53.256;6.456;2023-11-21T10:18:52;16.45;;;11.65;;
51764;SDS011;37835;53.256;6.456;2023-11-21T10:21:20;15.68;;;11.55;;
51764;SDS011;37835;53.256;6.456;2023-11-21T10:23:46;13.07;;;10.27;;
51764;SDS011;37835;53.256;6.456;2023-11-21T10:26:12;11.40;;;9.38;;
51764;SDS011;37835;53.256;6.456;2023-11-21T10:29:00;14.05;;;10.65;;
51764;SDS011;37835;53.256;6.456;2023-11-21T10:31:28;11.60;;;9.68;;
51764;SDS011;37835;53.256;6.456;2023-11-21T10:36:42;11.75;;;9.75;;
51764;SDS011;37835;53.256;6.456;2023-11-21T10:39:08;12.18;;;9.30;;
51764;SDS011;37835;53.256;6.456;2023-11-21T10:41:35;11.50;;;9.15;;
51764;SDS011;37835;53.256;6.456;2023-11-21T10:44:01;11.60;;;8.93;;
51764;SDS011;37835;53.256;6.456;2023-11-21T10:46:32;9.68;;;8.45;;
51764;SDS011;37835;53.256;6.456;2023-11-21T10:48:58;11.65;;;8.75;;
51764;SDS011;37835;53.256;6.456;2023-11-21T10:51:25;9.50;;;8.10;;
51764;SDS011;37835;53.256;6.456;2023-11-21T10:53:51;12.43;;;8.45;;
51764;SDS011;37835;53.256;6.456;2023-11-21T10:56:17;9.30;;;8.30;;
51764;SDS011;37835;53.256;6.456;2023-11-21T10:58:46;13.13;;;9.30;;
51764;SDS011;37835;53.256;6.456;2023-11-21T11:01:14;10.38;;;8.90;;
51764;SDS011;37835;53.256;6.456;2023-11-21T11:03:43;11.68;;;8.65;;
51764;SDS011;37835;53.256;6.456;2023-11-21T11:06:09;12.20;;;9.43;;
51764;SDS011;37835;53.256;6.456;2023-11-21T11:08:38;12.52;;;9.02;;
51764;SDS011;37835;53.256;6.456;2023-11-21T11:11:05;12.43;;;9.07;;
51764;SDS011;37835;53.256;6.456;2023-11-21T11:13:31;10.82;;;8.75;;
51764;SDS011;37835;53.256;6.456;2023-11-21T11:16:00;11.00;;;8.63;;
51764;SDS011;37835;53.256;6.456;2023-11-21T11:18:32;13.65;;;9.35;;
51764;SDS011;37835;53.256;6.456;2023-11-21T11:21:06;12.57;;;8.85;;
51764;SDS011;37835;53.256;6.456;2023-11-21T11:26:51;10.90;;;8.38;;
51764;SDS011;37835;53.256;6.456;2023-11-21T11:34:54;12.27;;;8.43;;
51764;SDS011;37835;53.256;6.456;2023-11-21T11:37:26;11.43;;;8.40;;
51764;SDS011;37835;53.256;6.456;2023-11-21T11:39:52;11.13;;;8.35;;
51764;SDS011;37835;53.256;6.456;2023-11-21T11:42:19;10.38;;;8.10;;
51764;SDS011;37835;53.256;6.456;2023-11-21T11:44:47;11.35;;;8.15;;
51764;SDS011;37835;53.256;6.456;2023-11-21T11:50:05;11.82;;;8.23;;
51764;SDS011;37835;53.256;6.456;2023-11-21T11:55:15;11.02;;;7.80;;
51764;SDS011;37835;53.256;6.456;2023-11-21T11:57:49;10.85;;;7.72;;
51764;SDS011;37835;53.256;6.456;2023-11-21T12:00:19;9.05;;;7.45;;
51764;SDS011;37835;53.256;6.456;2023-11-21T12:02:53;9.43;;;7.65;;
51764;SDS011;37835;53.256;6.456;2023-11-21T12:05:24;11.10;;;6.85;;
51764;SDS011;37835;53.256;6.456;2023-11-21T12:10:26;7.88;;;7.07;;
51764;SDS011;37835;53.256;6.456;2023-11-21T12:13:00;12.82;;;7.15;;
51764;SDS011;37835;53.256;6.456;2023-11-21T12:15:35;10.07;;;7.57;;
51764;SDS011;37835;53.256;6.456;2023-11-21T12:18:01;12.65;;;8.25;;
51764;SDS011;37835;53.256;6.456;2023-11-21T12:20:28;12.40;;;8.77;;
51764;SDS011;37835;53.256;6.456;2023-11-21T12:22:57;10.38;;;8.13;;
51764;SDS011;37835;53.256;6.456;2023-11-21T12:25:29;10.38;;;8.13;;
51764;SDS011;37835;53.256;6.456;2023-11-21T12:27:59;12.07;;;7.95;;
51764;SDS011;37835;53.256;6.456;2023-11-21T12:30:26;11.63;;;7.55;;
51764;SDS011;37835;53.256;6.456;2023-11-21T12:33:00;11.25;;;7.45;;
51764;SDS011;37835;53.256;6.456;2023-11-21T12:35:26;10.13;;;7.97;;
51764;SDS011;37835;53.256;6.456;2023-11-21T12:37:58;10.13;;;7.85;;
51764;SDS011;37835;53.256;6.456;2023-11-21T12:40:25;8.80;;;7.18;;
51764;SDS011;37835;53.256;6.456;2023-11-21T12:42:52;9.15;;;6.63;;
51764;SDS011;37835;53.256;6.456;2023-11-21T12:45:20;8.40;;;7.07;;
51764;SDS011;37835;53.256;6.456;2023-11-21T12:47:48;9.57;;;7.85;;
51764;SDS011;37835;53.256;6.456;2023-11-21T12:50:24;11.68;;;7.80;;
51764;SDS011;37835;53.256;6.456;2023-11-21T12:52:53;11.98;;;8.10;;
51764;SDS011;37835;53.256;6.456;2023-11-21T12:55:22;9.07;;;7.78;;
51764;SDS011;37835;53.256;6.456;2023-11-21T12:57:53;14.27;;;8.70;;
51764;SDS011;37835;53.256;6.456;2023-11-21T13:00:32;10.30;;;8.07;;
51764;SDS011;37835;53.256;6.456;2023-11-21T13:03:02;10.15;;;8.05;;
51764;SDS011;37835;53.256;6.456;2023-11-21T13:05:29;9.18;;;8.07;;
51764;SDS011;37835;53.256;6.456;2023-11-21T13:07:59;12.88;;;8.60;;
51764;SDS011;37835;53.256;6.456;2023-11-21T13:10:28;11.05;;;8.60;;
51764;SDS011;37835;53.256;6.456;2023-11-21T13:12:58;10.70;;;8.00;;
51764;SDS011;37835;53.256;6.456;2023-11-21T13:15:25;9.75;;;8.13;;
51764;SDS011;37835;53.256;6.456;2023-11-21T13:17:52;10.45;;;8.50;;
51764;SDS011;37835;53.256;6.456;2023-11-21T13:20:19;8.55;;;7.05;;
51764;SDS011;37835;53.256;6.456;2023-11-21T13:22:56;10.13;;;7.65;;
51764;SDS011;37835;53.256;6.456;2023-11-21T13:25:28;11.10;;;7.43;;
51764;SDS011;37835;53.256;6.456;2023-11-21T13:27:56;10.68;;;7.13;;
51764;SDS011;37835;53.256;6.456;2023-11-21T13:30:24;11.27;;;7.20;;
51764;SDS011;37835;53.256;6.456;2023-11-21T13:32:58;12.73;;;8.07;;
51764;SDS011;37835;53.256;6.456;2023-11-21T13:35:27;11.23;;;6.93;;
51764;SDS011;37835;53.256;6.456;2023-11-21T13:38:06;9.20;;;6.47;;
51764;SDS011;37835;53.256;6.456;2023-11-21T13:40:34;9.27;;;6.53;;
51764;SDS011;37835;53.256;6.456;2023-11-21T13:43:15;8.05;;;6.45;;
51764;SDS011;37835;53.256;6.456;2023-11-21T13:45:43;12.00;;;6.43;;
51764;SDS011;37835;53.256;6.456;2023-11-21T13:48:10;7.95;;;6.45;;
51764;SDS011;37835;53.256;6.456;2023-11-21T13:50:39;7.03;;;5.97;;
51764;SDS011;37835;53.256;6.456;2023-11-21T13:53:13;7.07;;;5.22;;
51764;SDS011;37835;53.256;6.456;2023-11-21T13:55:48;5.88;;;4.82;;
51764;SDS011;37835;53.256;6.456;2023-11-21T13:58:15;6.80;;;5.03;;
51764;SDS011;37835;53.256;6.456;2023-11-21T14:00:47;8.65;;;4.90;;
51764;SDS011;37835;53.256;6.456;2023-11-21T14:03:20;9.07;;;5.03;;
51764;SDS011;37835;53.256;6.456;2023-11-21T14:05:47;8.70;;;4.75;;
51764;SDS011;37835;53.256;6.456;2023-11-21T14:08:22;7.43;;;5.13;;
51764;SDS011;37835;53.256;6.456;2023-11-21T14:10:53;7.72;;;4.68;;
51764;SDS011;37835;53.256;6.456;2023-11-21T14:13:24;8.37;;;4.23;;
51764;SDS011;37835;53.256;6.456;2023-11-21T14:15:51;6.57;;;4.47;;
51764;SDS011;37835;53.256;6.456;2023-11-21T14:18:23;8.70;;;4.35;;
51764;SDS011;37835;53.256;6.456;2023-11-21T14:20:55;7.75;;;4.53;;
51764;SDS011;37835;53.256;6.456;2023-11-21T14:23:21;8.32;;;4.75;;
51764;SDS011;37835;53.256;6.456;2023-11-21T14:25:48;7.18;;;4.50;;
51764;SDS011;37835;53.256;6.456;2023-11-21T14:28:15;7.72;;;4.32;;
51764;SDS011;37835;53.256;6.456;2023-11-21T14:30:41;6.93;;;4.18;;
51764;SDS011;37835;53.256;6.456;2023-11-21T14:33:07;7.20;;;4.07;;
51764;SDS011;37835;53.256;6.456;2023-11-21T14:35:35;6.38;;;4.07;;
51764;SDS011;37835;53.256;6.456;2023-11-21T14:38:01;5.70;;;4.13;;
51764;SDS011;37835;53.256;6.456;2023-11-21T14:40:29;4.18;;;3.53;;
51764;SDS011;37835;53.256;6.456;2023-11-21T14:42:59;7.57;;;4.00;;
51764;SDS011;37835;53.256;6.456;2023-11-21T14:45:25;6.30;;;3.88;;
51764;SDS011;37835;53.256;6.456;2023-11-21T14:47:51;5.72;;;3.83;;
51764;SDS011;37835;53.256;6.456;2023-11-21T14:50:40;6.32;;;4.18;;